Weurtsburg, Wisconsin
Current Conditions -  °F | °C
As of 9:55 AM on Friday 19 Dec 2014 (Local Time) from KMDZ Reporting Station
Overcast Overcast  
Wind Chill: 14°   Ceiling: 1000
Heat Index: 22°   Visibility: 10mi
Dew Point: 19°   Wind: 6mph
Humidity: 87%   Direction: 130°SE
Pressure: 30.25"   Gusts: NA
Location:  45.0406°N, 90.0529°W
Report Text: KMDZ 191555Z AUTO 13005KT 10SM OVC010 M06/M07 A3025 RMK AO2 T10561075
Loading
Personal Weather Stations






























Interactive Weather Map New forecast layout! Learn more

10-Day Weather Forecast

Advertisements
Track Severe Weather on mobile